sensor_id;sensor_type;location;lat;lon;timestamp;temperature;humidity
38131;DHT22;23947;51.894;4.622;2022-09-03T00:02:13;18.70;1.00
38131;DHT22;23947;51.894;4.622;2022-09-03T00:13:23;18.60;1.00
38131;DHT22;23947;51.894;4.622;2022-09-03T00:15:50;18.60;1.00
38131;DHT22;23947;51.894;4.622;2022-09-03T00:18:19;18.60;1.00
38131;DHT22;23947;51.894;4.622;2022-09-03T00:20:48;18.50;1.00
38131;DHT22;23947;51.894;4.622;2022-09-03T00:23:18;18.50;1.00
38131;DHT22;23947;51.894;4.622;2022-09-03T00:28:30;18.50;1.00
38131;DHT22;23947;51.894;4.622;2022-09-03T00:31:03;18.50;1.00
38131;DHT22;23947;51.894;4.622;2022-09-03T00:33:30;18.50;1.00
38131;DHT22;23947;51.894;4.622;2022-09-03T00:38:22;18.50;1.00
38131;DHT22;23947;51.894;4.622;2022-09-03T00:40:51;18.40;1.00
38131;DHT22;23947;51.894;4.622;2022-09-03T00:43:34;18.40;1.00
38131;DHT22;23947;51.894;4.622;2022-09-03T00:51:43;18.40;1.00
38131;DHT22;23947;51.894;4.622;2022-09-03T00:54:29;18.40;1.00
38131;DHT22;23947;51.894;4.622;2022-09-03T00:57:11;18.30;1.00
38131;DHT22;23947;51.894;4.622;2022-09-03T01:02:18;18.30;1.00
38131;DHT22;23947;51.894;4.622;2022-09-03T01:10:34;18.20;1.00
38131;DHT22;23947;51.894;4.622;2022-09-03T01:16:03;18.20;1.00
38131;DHT22;23947;51.894;4.622;2022-09-03T01:26:30;18.10;1.00
38131;DHT22;23947;51.894;4.622;2022-09-03T01:29:09;18.10;1.00
38131;DHT22;23947;51.894;4.622;2022-09-03T01:36:40;18.00;1.00
38131;DHT22;23947;51.894;4.622;2022-09-03T01:39:11;18.00;1.00
38131;DHT22;23947;51.894;4.622;2022-09-03T01:49:44;17.90;1.00
38131;DHT22;23947;51.894;4.622;2022-09-03T01:52:18;17.80;1.00
38131;DHT22;23947;51.894;4.622;2022-09-03T01:57:47;17.80;1.00
38131;DHT22;23947;51.894;4.622;2022-09-03T02:00:16;17.70;1.00
38131;DHT22;23947;51.894;4.622;2022-09-03T02:02:45;17.70;1.00
38131;DHT22;23947;51.894;4.622;2022-09-03T02:07:44;17.70;1.00
38131;DHT22;23947;51.894;4.622;2022-09-03T02:10:14;17.70;1.00
38131;DHT22;23947;51.894;4.622;2022-09-03T02:12:43;17.70;1.00
38131;DHT22;23947;51.894;4.622;2022-09-03T02:15:11;17.60;1.00
38131;DHT22;23947;51.894;4.622;2022-09-03T02:17:37;17.60;1.00
38131;DHT22;23947;51.894;4.622;2022-09-03T02:20:06;17.60;1.00
38131;DHT22;23947;51.894;4.622;2022-09-03T02:22:32;17.60;1.00
38131;DHT22;23947;51.894;4.622;2022-09-03T02:24:59;17.60;1.00
38131;DHT22;23947;51.894;4.622;2022-09-03T02:27:24;17.60;1.00
38131;DHT22;23947;51.894;4.622;2022-09-03T02:29:50;17.50;1.00
38131;DHT22;23947;51.894;4.622;2022-09-03T02:32:16;17.60;1.00
38131;DHT22;23947;51.894;4.622;2022-09-03T02:34:41;17.60;1.00
38131;DHT22;23947;51.894;4.622;2022-09-03T02:37:11;17.50;1.00
38131;DHT22;23947;51.894;4.622;2022-09-03T02:39:37;17.50;1.00
38131;DHT22;23947;51.894;4.622;2022-09-03T02:42:03;17.50;1.00
38131;DHT22;23947;51.894;4.622;2022-09-03T02:44:32;17.50;1.00
38131;DHT22;23947;51.894;4.622;2022-09-03T02:47:03;17.50;1.00
38131;DHT22;23947;51.894;4.622;2022-09-03T02:49:29;17.40;1.00
38131;DHT22;23947;51.894;4.622;2022-09-03T02:51:58;17.30;1.00
38131;DHT22;23947;51.894;4.622;2022-09-03T02:54:26;17.40;1.00
38131;DHT22;23947;51.894;4.622;2022-09-03T02:56:52;17.30;1.00
38131;DHT22;23947;51.894;4.622;2022-09-03T02:59:18;17.30;1.00
38131;DHT22;23947;51.894;4.622;2022-09-03T03:01:43;17.20;1.00
38131;DHT22;23947;51.894;4.622;2022-09-03T03:04:09;17.20;1.00
38131;DHT22;23947;51.894;4.622;2022-09-03T03:06:34;17.10;1.00
38131;DHT22;23947;51.894;4.622;2022-09-03T03:09:00;17.10;1.00
38131;DHT22;23947;51.894;4.622;2022-09-03T03:11:29;17.10;1.00
38131;DHT22;23947;51.894;4.622;2022-09-03T03:13:55;17.10;1.00
38131;DHT22;23947;51.894;4.622;2022-09-03T03:16:20;17.00;1.00
38131;DHT22;23947;51.894;4.622;2022-09-03T03:18:46;17.00;1.00
38131;DHT22;23947;51.894;4.622;2022-09-03T03:21:12;16.90;1.00
38131;DHT22;23947;51.894;4.622;2022-09-03T03:23:38;17.00;1.00
38131;DHT22;23947;51.894;4.622;2022-09-03T03:26:05;17.00;1.00
38131;DHT22;23947;51.894;4.622;2022-09-03T03:28:30;16.90;1.00
38131;DHT22;23947;51.894;4.622;2022-09-03T03:31:05;16.90;1.00
38131;DHT22;23947;51.894;4.622;2022-09-03T03:33:31;16.90;1.00
38131;DHT22;23947;51.894;4.622;2022-09-03T03:35:57;16.90;1.00
38131;DHT22;23947;51.894;4.622;2022-09-03T03:38:23;16.90;1.00
38131;DHT22;23947;51.894;4.622;2022-09-03T03:40:48;16.80;1.00
38131;DHT22;23947;51.894;4.622;2022-09-03T03:43:13;16.80;1.00
38131;DHT22;23947;51.894;4.622;2022-09-03T03:45:39;16.80;1.00
38131;DHT22;23947;51.894;4.622;2022-09-03T03:48:04;16.80;1.00
38131;DHT22;23947;51.894;4.622;2022-09-03T03:50:30;16.70;1.00
38131;DHT22;23947;51.894;4.622;2022-09-03T03:52:58;16.70;1.00
38131;DHT22;23947;51.894;4.622;2022-09-03T03:55:24;16.60;1.00
38131;DHT22;23947;51.894;4.622;2022-09-03T03:57:49;16.70;1.00
38131;DHT22;23947;51.894;4.622;2022-09-03T04:00:15;16.60;1.00
38131;DHT22;23947;51.894;4.622;2022-09-03T04:02:40;16.60;1.00
38131;DHT22;23947;51.894;4.622;2022-09-03T04:05:06;16.60;1.00
38131;DHT22;23947;51.894;4.622;2022-09-03T04:07:31;16.60;1.00
38131;DHT22;23947;51.894;4.622;2022-09-03T04:09:57;16.60;1.00
38131;DHT22;23947;51.894;4.622;2022-09-03T04:12:22;16.60;1.00
38131;DHT22;23947;51.894;4.622;2022-09-03T04:14:48;16.50;1.00
38131;DHT22;23947;51.894;4.622;2022-09-03T04:17:13;16.50;1.00
38131;DHT22;23947;51.894;4.622;2022-09-03T04:19:39;16.50;1.00
38131;DHT22;23947;51.894;4.622;2022-09-03T04:22:04;16.50;1.00
38131;DHT22;23947;51.894;4.622;2022-09-03T04:24:30;16.50;1.00
38131;DHT22;23947;51.894;4.622;2022-09-03T04:26:56;16.40;1.00
38131;DHT22;23947;51.894;4.622;2022-09-03T04:29:22;16.40;1.00
38131;DHT22;23947;51.894;4.622;2022-09-03T04:31:47;16.40;1.00
38131;DHT22;23947;51.894;4.622;2022-09-03T04:34:31;16.40;1.00
38131;DHT22;23947;51.894;4.622;2022-09-03T04:36:57;16.40;1.00
38131;DHT22;23947;51.894;4.622;2022-09-03T04:39:23;16.40;1.00
38131;DHT22;23947;51.894;4.622;2022-09-03T04:41:49;16.40;1.00
38131;DHT22;23947;51.894;4.622;2022-09-03T04:44:14;16.40;1.00
38131;DHT22;23947;51.894;4.622;2022-09-03T04:46:40;16.40;1.00
38131;DHT22;23947;51.894;4.622;2022-09-03T04:49:06;16.40;1.00
38131;DHT22;23947;51.894;4.622;2022-09-03T04:51:34;16.40;1.00
38131;DHT22;23947;51.894;4.622;2022-09-03T04:54:02;16.40;1.00
38131;DHT22;23947;51.894;4.622;2022-09-03T04:56:31;16.30;1.00
38131;DHT22;23947;51.894;4.622;2022-09-03T04:58:57;16.30;1.00
38131;DHT22;23947;51.894;4.622;2022-09-03T05:01:24;16.30;1.00
38131;DHT22;23947;51.894;4.622;2022-09-03T05:03:50;16.30;1.00
38131;DHT22;23947;51.894;4.622;2022-09-03T05:06:18;16.30;1.00
38131;DHT22;23947;51.894;4.622;2022-09-03T05:08:48;16.30;1.00
38131;DHT22;23947;51.894;4.622;2022-09-03T05:11:13;16.30;1.00
38131;DHT22;23947;51.894;4.622;2022-09-03T05:13:39;16.20;1.00
38131;DHT22;23947;51.894;4.622;2022-09-03T05:16:05;16.20;1.00
38131;DHT22;23947;51.894;4.622;2022-09-03T05:18:31;16.20;1.00
38131;DHT22;23947;51.894;4.622;2022-09-03T05:23:52;16.20;1.00
38131;DHT22;23947;51.894;4.622;2022-09-03T05:26:19;16.20;1.00
38131;DHT22;23947;51.894;4.622;2022-09-03T05:28:44;16.20;1.00
38131;DHT22;23947;51.894;4.622;2022-09-03T05:31:11;16.20;1.00
38131;DHT22;23947;51.894;4.622;2022-09-03T05:33:38;16.20;1.00
38131;DHT22;23947;51.894;4.622;2022-09-03T05:36:04;16.20;1.00
38131;DHT22;23947;51.894;4.622;2022-09-03T05:38:30;16.20;1.00
38131;DHT22;23947;51.894;4.622;2022-09-03T05:40:59;16.30;1.00
38131;DHT22;23947;51.894;4.622;2022-09-03T05:43:25;16.20;1.00
38131;DHT22;23947;51.894;4.622;2022-09-03T05:45:51;16.30;1.00
38131;DHT22;23947;51.894;4.622;2022-09-03T05:48:20;16.30;1.00
38131;DHT22;23947;51.894;4.622;2022-09-03T05:50:46;16.30;1.00
38131;DHT22;23947;51.894;4.622;2022-09-03T05:53:13;16.30;1.00
38131;DHT22;23947;51.894;4.622;2022-09-03T05:55:38;16.30;1.00
38131;DHT22;23947;51.894;4.622;2022-09-03T05:58:04;16.30;1.00
38131;DHT22;23947;51.894;4.622;2022-09-03T06:00:29;16.30;1.00
38131;DHT22;23947;51.894;4.622;2022-09-03T06:02:55;16.40;1.00
38131;DHT22;23947;51.894;4.622;2022-09-03T06:05:20;16.40;1.00
38131;DHT22;23947;51.894;4.622;2022-09-03T06:07:46;16.40;1.00
38131;DHT22;23947;51.894;4.622;2022-09-03T06:10:14;16.40;1.00
38131;DHT22;23947;51.894;4.622;2022-09-03T06:12:41;16.50;1.00
38131;DHT22;23947;51.894;4.622;2022-09-03T06:15:09;16.50;1.00
38131;DHT22;23947;51.894;4.622;2022-09-03T06:17:36;16.50;1.00
38131;DHT22;23947;51.894;4.622;2022-09-03T06:20:02;16.50;1.00
38131;DHT22;23947;51.894;4.622;2022-09-03T06:22:27;16.50;1.00
38131;DHT22;23947;51.894;4.622;2022-09-03T06:24:54;16.50;1.00
38131;DHT22;23947;51.894;4.622;2022-09-03T06:27:19;16.60;1.00
38131;DHT22;23947;51.894;4.622;2022-09-03T06:29:45;16.60;1.00
38131;DHT22;23947;51.894;4.622;2022-09-03T06:32:11;16.70;1.00
38131;DHT22;23947;51.894;4.622;2022-09-03T06:34:36;16.70;1.00
38131;DHT22;23947;51.894;4.622;2022-09-03T06:37:02;16.80;1.00
38131;DHT22;23947;51.894;4.622;2022-09-03T06:39:27;16.70;1.00
38131;DHT22;23947;51.894;4.622;2022-09-03T06:41:53;16.80;1.00
38131;DHT22;23947;51.894;4.622;2022-09-03T06:44:19;16.90;1.00
38131;DHT22;23947;51.894;4.622;2022-09-03T06:46:44;16.90;1.00
38131;DHT22;23947;51.894;4.622;2022-09-03T06:49:12;17.00;1.00
38131;DHT22;23947;51.894;4.622;2022-09-03T06:51:38;17.00;1.00
38131;DHT22;23947;51.894;4.622;2022-09-03T06:54:05;17.00;1.00
38131;DHT22;23947;51.894;4.622;2022-09-03T06:56:30;17.10;1.00
38131;DHT22;23947;51.894;4.622;2022-09-03T06:58:59;17.10;1.00
38131;DHT22;23947;51.894;4.622;2022-09-03T07:01:25;17.20;1.00
38131;DHT22;23947;51.894;4.622;2022-09-03T07:03:55;17.20;1.00
38131;DHT22;23947;51.894;4.622;2022-09-03T07:06:22;17.30;1.00
38131;DHT22;23947;51.894;4.622;2022-09-03T07:08:47;17.40;1.00
38131;DHT22;23947;51.894;4.622;2022-09-03T07:11:14;17.40;1.00
38131;DHT22;23947;51.894;4.622;2022-09-03T07:13:41;17.50;1.00
38131;DHT22;23947;51.894;4.622;2022-09-03T07:16:08;17.60;1.00
38131;DHT22;23947;51.894;4.622;2022-09-03T07:18:34;17.60;1.00
38131;DHT22;23947;51.894;4.622;2022-09-03T07:21:04;17.60;1.00
38131;DHT22;23947;51.894;4.622;2022-09-03T07:23:30;17.80;1.00
38131;DHT22;23947;51.894;4.622;2022-09-03T07:25:57;17.80;1.00
38131;DHT22;23947;51.894;4.622;2022-09-03T07:28:23;17.90;1.00
38131;DHT22;23947;51.894;4.622;2022-09-03T07:30:52;18.00;1.00
38131;DHT22;23947;51.894;4.622;2022-09-03T07:33:17;18.00;1.00
38131;DHT22;23947;51.894;4.622;2022-09-03T07:35:43;18.00;1.00
38131;DHT22;23947;51.894;4.622;2022-09-03T07:38:09;18.10;1.00
38131;DHT22;23947;51.894;4.622;2022-09-03T07:40:34;18.10;1.00
38131;DHT22;23947;51.894;4.622;2022-09-03T07:43:00;18.20;1.00
38131;DHT22;23947;51.894;4.622;2022-09-03T07:45:28;18.20;1.00
38131;DHT22;23947;51.894;4.622;2022-09-03T07:47:54;18.30;1.00
38131;DHT22;23947;51.894;4.622;2022-09-03T07:50:19;18.30;1.00
38131;DHT22;23947;51.894;4.622;2022-09-03T07:52:45;18.50;1.00
38131;DHT22;23947;51.894;4.622;2022-09-03T07:55:11;18.50;1.00
38131;DHT22;23947;51.894;4.622;2022-09-03T07:57:38;18.60;1.00
38131;DHT22;23947;51.894;4.622;2022-09-03T08:00:04;18.70;1.00
38131;DHT22;23947;51.894;4.622;2022-09-03T08:02:32;18.80;1.00
38131;DHT22;23947;51.894;4.622;2022-09-03T08:04:58;18.80;1.00
38131;DHT22;23947;51.894;4.622;2022-09-03T08:07:24;18.90;1.00
38131;DHT22;23947;51.894;4.622;2022-09-03T08:09:50;19.00;1.00
38131;DHT22;23947;51.894;4.622;2022-09-03T08:12:15;19.00;1.00
38131;DHT22;23947;51.894;4.622;2022-09-03T08:14:40;19.10;1.00
38131;DHT22;23947;51.894;4.622;2022-09-03T08:17:06;19.10;1.00
38131;DHT22;23947;51.894;4.622;2022-09-03T08:19:32;19.20;1.00
38131;DHT22;23947;51.894;4.622;2022-09-03T08:21:58;19.30;1.00
38131;DHT22;23947;51.894;4.622;2022-09-03T08:24:24;19.30;1.00
38131;DHT22;23947;51.894;4.622;2022-09-03T08:26:50;19.30;1.00
38131;DHT22;23947;51.894;4.622;2022-09-03T08:29:16;19.30;1.00
38131;DHT22;23947;51.894;4.622;2022-09-03T08:31:41;19.40;1.00
38131;DHT22;23947;51.894;4.622;2022-09-03T08:34:08;19.40;1.00
38131;DHT22;23947;51.894;4.622;2022-09-03T08:36:36;19.50;1.00
38131;DHT22;23947;51.894;4.622;2022-09-03T08:39:03;19.50;1.00
38131;DHT22;23947;51.894;4.622;2022-09-03T08:41:36;19.60;1.00
38131;DHT22;23947;51.894;4.622;2022-09-03T08:44:08;19.60;1.00
38131;DHT22;23947;51.894;4.622;2022-09-03T08:49:17;19.70;1.00
38131;DHT22;23947;51.894;4.622;2022-09-03T08:51:45;19.70;1.00
38131;DHT22;23947;51.894;4.622;2022-09-03T08:54:12;19.80;1.00
38131;DHT22;23947;51.894;4.622;2022-09-03T08:56:38;19.80;1.00
38131;DHT22;23947;51.894;4.622;2022-09-03T08:59:06;19.90;1.00
38131;DHT22;23947;51.894;4.622;2022-09-03T09:01:39;19.90;1.00
38131;DHT22;23947;51.894;4.622;2022-09-03T09:09:22;20.10;1.00
38131;DHT22;23947;51.894;4.622;2022-09-03T09:21:39;20.40;1.00
38131;DHT22;23947;51.894;4.622;2022-09-03T09:24:55;20.40;1.00
38131;DHT22;23947;51.894;4.622;2022-09-03T09:26:57;20.50;1.00
38131;DHT22;23947;51.894;4.622;2022-09-03T09:29:24;20.60;1.00
38131;DHT22;23947;51.894;4.622;2022-09-03T09:31:51;20.70;1.00
38131;DHT22;23947;51.894;4.622;2022-09-03T09:34:17;20.80;1.00
38131;DHT22;23947;51.894;4.622;2022-09-03T09:36:47;20.80;1.00
38131;DHT22;23947;51.894;4.622;2022-09-03T09:39:13;20.90;1.00
38131;DHT22;23947;51.894;4.622;2022-09-03T09:41:42;20.90;1.00
38131;DHT22;23947;51.894;4.622;2022-09-03T09:44:16;20.90;1.00
38131;DHT22;23947;51.894;4.622;2022-09-03T09:46:43;21.00;1.00
38131;DHT22;23947;51.894;4.622;2022-09-03T09:52:04;21.10;1.00
38131;DHT22;23947;51.894;4.622;2022-09-03T09:54:30;21.20;1.00
38131;DHT22;23947;51.894;4.622;2022-09-03T09:57:03;21.40;1.00
38131;DHT22;23947;51.894;4.622;2022-09-03T09:59:29;21.40;1.00
